sensor_id;sensor_type;location;lat;lon;timestamp;temperature;humidity
19580;DHT22;9936;51.040;13.918;2023-02-12T00:03:19;5.60;99.90
19580;DHT22;9936;51.040;13.918;2023-02-12T00:07:05;5.60;99.90
19580;DHT22;9936;51.040;13.918;2023-02-12T00:10:51;5.60;99.90
19580;DHT22;9936;51.040;13.918;2023-02-12T00:14:37;5.60;99.90
19580;DHT22;9936;51.040;13.918;2023-02-12T00:18:22;5.50;99.90
19580;DHT22;9936;51.040;13.918;2023-02-12T00:22:08;5.50;99.90
19580;DHT22;9936;51.040;13.918;2023-02-12T00:25:54;5.40;99.90
19580;DHT22;9936;51.040;13.918;2023-02-12T00:29:39;5.50;99.90
19580;DHT22;9936;51.040;13.918;2023-02-12T00:33:25;5.40;99.90
19580;DHT22;9936;51.040;13.918;2023-02-12T00:37:11;5.40;99.90
19580;DHT22;9936;51.040;13.918;2023-02-12T00:40:56;5.40;99.90
19580;DHT22;9936;51.040;13.918;2023-02-12T00:44:42;5.50;99.90
19580;DHT22;9936;51.040;13.918;2023-02-12T00:48:28;5.50;99.90
19580;DHT22;9936;51.040;13.918;2023-02-12T00:52:13;5.60;99.90
19580;DHT22;9936;51.040;13.918;2023-02-12T00:56:00;5.50;99.90
19580;DHT22;9936;51.040;13.918;2023-02-12T00:59:45;5.40;99.90
19580;DHT22;9936;51.040;13.918;2023-02-12T01:03:32;5.50;99.90
19580;DHT22;9936;51.040;13.918;2023-02-12T01:07:17;5.50;99.90
19580;DHT22;9936;51.040;13.918;2023-02-12T01:11:04;5.50;99.90
19580;DHT22;9936;51.040;13.918;2023-02-12T01:14:50;5.40;99.90
19580;DHT22;9936;51.040;13.918;2023-02-12T01:18:37;5.40;99.90
19580;DHT22;9936;51.040;13.918;2023-02-12T01:22:23;5.40;99.90
19580;DHT22;9936;51.040;13.918;2023-02-12T01:26:09;5.40;99.90
19580;DHT22;9936;51.040;13.918;2023-02-12T01:29:56;5.40;99.90
19580;DHT22;9936;51.040;13.918;2023-02-12T01:33:42;5.40;99.90
19580;DHT22;9936;51.040;13.918;2023-02-12T01:37:28;5.50;99.90
19580;DHT22;9936;51.040;13.918;2023-02-12T01:41:17;5.40;99.90
19580;DHT22;9936;51.040;13.918;2023-02-12T01:48:57;5.30;99.90
19580;DHT22;9936;51.040;13.918;2023-02-12T01:52:50;5.30;99.90
19580;DHT22;9936;51.040;13.918;2023-02-12T01:56:36;5.30;99.90
19580;DHT22;9936;51.040;13.918;2023-02-12T02:00:23;5.30;99.90
19580;DHT22;9936;51.040;13.918;2023-02-12T02:04:14;5.30;99.90
19580;DHT22;9936;51.040;13.918;2023-02-12T02:08:01;5.20;99.90
19580;DHT22;9936;51.040;13.918;2023-02-12T02:11:47;5.30;99.90
19580;DHT22;9936;51.040;13.918;2023-02-12T02:15:54;5.30;99.90
19580;DHT22;9936;51.040;13.918;2023-02-12T02:32:04;5.30;99.90
19580;DHT22;9936;51.040;13.918;2023-02-12T02:35:58;5.30;99.90
19580;DHT22;9936;51.040;13.918;2023-02-12T02:40:12;5.30;99.90
19580;DHT22;9936;51.040;13.918;2023-02-12T02:44:02;5.30;99.90
19580;DHT22;9936;51.040;13.918;2023-02-12T02:48:18;5.30;99.90
19580;DHT22;9936;51.040;13.918;2023-02-12T02:52:10;5.30;99.90
19580;DHT22;9936;51.040;13.918;2023-02-12T02:55:58;5.30;99.90
19580;DHT22;9936;51.040;13.918;2023-02-12T02:59:49;5.40;99.90
19580;DHT22;9936;51.040;13.918;2023-02-12T03:03:43;5.20;99.90
19580;DHT22;9936;51.040;13.918;2023-02-12T03:07:48;5.30;99.90
19580;DHT22;9936;51.040;13.918;2023-02-12T03:11:35;5.30;99.90
19580;DHT22;9936;51.040;13.918;2023-02-12T03:15:29;5.30;99.90
19580;DHT22;9936;51.040;13.918;2023-02-12T03:19:21;5.30;99.90
19580;DHT22;9936;51.040;13.918;2023-02-12T03:23:11;5.30;99.90
19580;DHT22;9936;51.040;13.918;2023-02-12T03:31:04;5.30;99.90
19580;DHT22;9936;51.040;13.918;2023-02-12T03:39:53;5.30;99.90
19580;DHT22;9936;51.040;13.918;2023-02-12T03:43:29;5.30;99.90
19580;DHT22;9936;51.040;13.918;2023-02-12T03:51:21;5.30;99.90
19580;DHT22;9936;51.040;13.918;2023-02-12T03:55:08;5.30;99.90
19580;DHT22;9936;51.040;13.918;2023-02-12T03:58:54;5.30;99.90
19580;DHT22;9936;51.040;13.918;2023-02-12T04:02:40;5.30;99.90
19580;DHT22;9936;51.040;13.918;2023-02-12T04:06:27;5.30;99.90
19580;DHT22;9936;51.040;13.918;2023-02-12T04:10:13;5.30;99.90
19580;DHT22;9936;51.040;13.918;2023-02-12T04:18:58;5.30;99.90
19580;DHT22;9936;51.040;13.918;2023-02-12T04:23:03;5.30;99.90
19580;DHT22;9936;51.040;13.918;2023-02-12T04:27:01;5.30;99.90
19580;DHT22;9936;51.040;13.918;2023-02-12T04:35:15;5.30;99.90
19580;DHT22;9936;51.040;13.918;2023-02-12T04:39:10;5.30;99.90
19580;DHT22;9936;51.040;13.918;2023-02-12T04:42:59;5.30;99.90
19580;DHT22;9936;51.040;13.918;2023-02-12T04:46:45;5.30;99.90
19580;DHT22;9936;51.040;13.918;2023-02-12T04:50:42;5.30;99.90
19580;DHT22;9936;51.040;13.918;2023-02-12T04:54:28;5.30;99.90
19580;DHT22;9936;51.040;13.918;2023-02-12T04:58:14;5.30;99.90
19580;DHT22;9936;51.040;13.918;2023-02-12T05:01:59;5.40;99.90
19580;DHT22;9936;51.040;13.918;2023-02-12T05:05:45;5.30;99.90
19580;DHT22;9936;51.040;13.918;2023-02-12T05:09:31;5.20;99.90
19580;DHT22;9936;51.040;13.918;2023-02-12T05:13:17;5.30;99.90
19580;DHT22;9936;51.040;13.918;2023-02-12T05:17:02;5.20;99.90
19580;DHT22;9936;51.040;13.918;2023-02-12T05:20:56;5.20;99.90
19580;DHT22;9936;51.040;13.918;2023-02-12T05:24:42;5.20;99.90
19580;DHT22;9936;51.040;13.918;2023-02-12T05:28:28;5.20;99.90
19580;DHT22;9936;51.040;13.918;2023-02-12T05:32:14;5.10;99.90
19580;DHT22;9936;51.040;13.918;2023-02-12T05:36:12;5.20;99.90
19580;DHT22;9936;51.040;13.918;2023-02-12T05:39:58;5.20;99.90
19580;DHT22;9936;51.040;13.918;2023-02-12T05:43:44;5.10;99.90
19580;DHT22;9936;51.040;13.918;2023-02-12T05:47:30;5.20;99.90
19580;DHT22;9936;51.040;13.918;2023-02-12T05:51:18;5.10;99.90
19580;DHT22;9936;51.040;13.918;2023-02-12T05:55:06;5.10;99.90
19580;DHT22;9936;51.040;13.918;2023-02-12T05:58:55;5.10;99.90
19580;DHT22;9936;51.040;13.918;2023-02-12T06:02:41;5.10;99.90
19580;DHT22;9936;51.040;13.918;2023-02-12T06:06:28;5.10;99.90
19580;DHT22;9936;51.040;13.918;2023-02-12T06:10:14;5.10;99.90
19580;DHT22;9936;51.040;13.918;2023-02-12T06:14:08;5.10;99.90
19580;DHT22;9936;51.040;13.918;2023-02-12T06:17:55;5.10;99.90
19580;DHT22;9936;51.040;13.918;2023-02-12T06:21:41;5.00;99.90
19580;DHT22;9936;51.040;13.918;2023-02-12T06:25:26;5.10;99.90
19580;DHT22;9936;51.040;13.918;2023-02-12T06:29:12;5.00;99.90
19580;DHT22;9936;51.040;13.918;2023-02-12T06:32:58;5.00;99.90
19580;DHT22;9936;51.040;13.918;2023-02-12T06:36:44;4.90;99.90
19580;DHT22;9936;51.040;13.918;2023-02-12T06:40:31;5.00;99.90
19580;DHT22;9936;51.040;13.918;2023-02-12T06:44:16;5.00;99.90
19580;DHT22;9936;51.040;13.918;2023-02-12T06:48:02;5.00;99.90
19580;DHT22;9936;51.040;13.918;2023-02-12T06:51:48;4.90;99.90
19580;DHT22;9936;51.040;13.918;2023-02-12T06:55:34;4.90;99.90
19580;DHT22;9936;51.040;13.918;2023-02-12T06:59:19;4.90;99.90
19580;DHT22;9936;51.040;13.918;2023-02-12T07:03:05;4.90;99.90
19580;DHT22;9936;51.040;13.918;2023-02-12T07:06:51;4.90;99.90
19580;DHT22;9936;51.040;13.918;2023-02-12T07:10:36;4.90;99.90
19580;DHT22;9936;51.040;13.918;2023-02-12T07:14:22;4.90;99.90
19580;DHT22;9936;51.040;13.918;2023-02-12T07:18:08;4.90;99.90
19580;DHT22;9936;51.040;13.918;2023-02-12T07:21:53;4.80;99.90
19580;DHT22;9936;51.040;13.918;2023-02-12T07:25:39;4.90;99.90
19580;DHT22;9936;51.040;13.918;2023-02-12T07:29:25;4.80;99.90
19580;DHT22;9936;51.040;13.918;2023-02-12T07:33:10;4.90;99.90
19580;DHT22;9936;51.040;13.918;2023-02-12T07:37:07;4.90;99.90
19580;DHT22;9936;51.040;13.918;2023-02-12T07:40:53;4.90;99.90
19580;DHT22;9936;51.040;13.918;2023-02-12T07:44:39;5.20;99.90
19580;DHT22;9936;51.040;13.918;2023-02-12T07:48:24;5.50;99.90
19580;DHT22;9936;51.040;13.918;2023-02-12T07:52:10;5.70;99.90
19580;DHT22;9936;51.040;13.918;2023-02-12T07:56:07;5.90;99.90
19580;DHT22;9936;51.040;13.918;2023-02-12T07:59:53;6.10;99.90
19580;DHT22;9936;51.040;13.918;2023-02-12T08:03:38;6.00;99.90
19580;DHT22;9936;51.040;13.918;2023-02-12T08:07:24;6.00;99.90
19580;DHT22;9936;51.040;13.918;2023-02-12T08:11:11;6.10;99.90
19580;DHT22;9936;51.040;13.918;2023-02-12T08:14:57;6.20;99.90
19580;DHT22;9936;51.040;13.918;2023-02-12T08:18:45;6.30;99.90
19580;DHT22;9936;51.040;13.918;2023-02-12T08:22:31;6.30;99.90
19580;DHT22;9936;51.040;13.918;2023-02-12T08:26:19;6.50;99.90
19580;DHT22;9936;51.040;13.918;2023-02-12T08:30:06;6.40;99.90
19580;DHT22;9936;51.040;13.918;2023-02-12T08:33:53;6.40;99.90
19580;DHT22;9936;51.040;13.918;2023-02-12T08:37:39;6.50;99.90
19580;DHT22;9936;51.040;13.918;2023-02-12T08:41:28;6.40;99.90
19580;DHT22;9936;51.040;13.918;2023-02-12T08:45:13;6.40;99.90
19580;DHT22;9936;51.040;13.918;2023-02-12T08:49:03;6.40;99.90
19580;DHT22;9936;51.040;13.918;2023-02-12T08:52:49;6.40;99.90
19580;DHT22;9936;51.040;13.918;2023-02-12T08:56:36;6.50;99.90
19580;DHT22;9936;51.040;13.918;2023-02-12T09:00:22;6.50;99.90
19580;DHT22;9936;51.040;13.918;2023-02-12T09:04:12;6.50;99.90
19580;DHT22;9936;51.040;13.918;2023-02-12T09:08:03;6.50;99.90
19580;DHT22;9936;51.040;13.918;2023-02-12T09:11:49;6.40;99.90
19580;DHT22;9936;51.040;13.918;2023-02-12T09:15:41;6.30;99.90
19580;DHT22;9936;51.040;13.918;2023-02-12T09:19:27;6.40;99.90
19580;DHT22;9936;51.040;13.918;2023-02-12T09:23:13;6.30;99.90
19580;DHT22;9936;51.040;13.918;2023-02-12T09:27:16;6.40;99.90
19580;DHT22;9936;51.040;13.918;2023-02-12T09:31:10;6.30;99.90
19580;DHT22;9936;51.040;13.918;2023-02-12T09:34:56;6.30;99.90
19580;DHT22;9936;51.040;13.918;2023-02-12T09:38:46;6.30;99.90
19580;DHT22;9936;51.040;13.918;2023-02-12T09:50:49;6.30;99.90
19580;DHT22;9936;51.040;13.918;2023-02-12T09:54:37;6.30;99.90
19580;DHT22;9936;51.040;13.918;2023-02-12T09:58:37;6.30;99.90
19580;DHT22;9936;51.040;13.918;2023-02-12T10:02:26;6.30;99.90
19580;DHT22;9936;51.040;13.918;2023-02-12T10:06:28;6.30;99.90
19580;DHT22;9936;51.040;13.918;2023-02-12T10:26:40;6.20;99.90
19580;DHT22;9936;51.040;13.918;2023-02-12T10:34:34;6.20;99.90
19580;DHT22;9936;51.040;13.918;2023-02-12T10:38:27;6.20;99.90
19580;DHT22;9936;51.040;13.918;2023-02-12T10:42:32;6.20;99.90
19580;DHT22;9936;51.040;13.918;2023-02-12T10:46:20;6.20;99.90
19580;DHT22;9936;51.040;13.918;2023-02-12T10:50:24;6.30;99.90
19580;DHT22;9936;51.040;13.918;2023-02-12T10:58:20;6.30;99.90
19580;DHT22;9936;51.040;13.918;2023-02-12T11:02:29;6.30;99.90
19580;DHT22;9936;51.040;13.918;2023-02-12T11:06:27;6.30;99.90
19580;DHT22;9936;51.040;13.918;2023-02-12T11:10:20;6.30;99.90
19580;DHT22;9936;51.040;13.918;2023-02-12T11:14:28;6.40;99.90
19580;DHT22;9936;51.040;13.918;2023-02-12T11:18:29;6.30;99.90
19580;DHT22;9936;51.040;13.918;2023-02-12T11:22:20;6.40;99.90
19580;DHT22;9936;51.040;13.918;2023-02-12T11:30:17;6.40;99.90
19580;DHT22;9936;51.040;13.918;2023-02-12T11:37:50;6.40;99.90
19580;DHT22;9936;51.040;13.918;2023-02-12T11:41:40;6.50;99.90
19580;DHT22;9936;51.040;13.918;2023-02-12T11:45:51;6.50;99.90
19580;DHT22;9936;51.040;13.918;2023-02-12T11:49:47;6.50;99.90
19580;DHT22;9936;51.040;13.918;2023-02-12T11:53:41;6.50;99.90
19580;DHT22;9936;51.040;13.918;2023-02-12T12:01:27;6.50;99.90
19580;DHT22;9936;51.040;13.918;2023-02-12T12:05:41;6.50;99.90
19580;DHT22;9936;51.040;13.918;2023-02-12T12:09:46;6.50;99.90
19580;DHT22;9936;51.040;13.918;2023-02-12T12:26:20;6.40;99.90
19580;DHT22;9936;51.040;13.918;2023-02-12T12:34:29;6.40;99.90
19580;DHT22;9936;51.040;13.918;2023-02-12T12:38:40;6.30;99.90
19580;DHT22;9936;51.040;13.918;2023-02-12T13:07:52;6.40;99.90
19580;DHT22;9936;51.040;13.918;2023-02-12T13:15:54;6.50;99.90
19580;DHT22;9936;51.040;13.918;2023-02-12T13:27:38;6.40;99.90
19580;DHT22;9936;51.040;13.918;2023-02-12T13:31:28;6.40;99.90
19580;DHT22;9936;51.040;13.918;2023-02-12T13:35:29;6.50;99.90
19580;DHT22;9936;51.040;13.918;2023-02-12T13:39:30;6.30;99.90
19580;DHT22;9936;51.040;13.918;2023-02-12T13:51:44;6.40;99.90
19580;DHT22;9936;51.040;13.918;2023-02-12T13:55:36;6.40;99.90
19580;DHT22;9936;51.040;13.918;2023-02-12T13:59:44;6.40;99.90
19580;DHT22;9936;51.040;13.918;2023-02-12T14:03:31;6.30;99.90
19580;DHT22;9936;51.040;13.918;2023-02-12T14:07:17;6.40;99.90
19580;DHT22;9936;51.040;13.918;2023-02-12T14:11:07;6.40;99.90
19580;DHT22;9936;51.040;13.918;2023-02-12T14:15:05;6.40;99.90
19580;DHT22;9936;51.040;13.918;2023-02-12T14:18:52;6.30;99.90
19580;DHT22;9936;51.040;13.918;2023-02-12T14:27:47;6.40;99.90
19580;DHT22;9936;51.040;13.918;2023-02-12T14:31:37;6.40;99.90
19580;DHT22;9936;51.040;13.918;2023-02-12T14:36:14;6.30;99.90
19580;DHT22;9936;51.040;13.918;2023-02-12T14:40:29;6.30;99.90
19580;DHT22;9936;51.040;13.918;2023-02-12T14:48:03;6.20;99.90
19580;DHT22;9936;51.040;13.918;2023-02-12T14:55:52;6.30;99.90
19580;DHT22;9936;51.040;13.918;2023-02-12T14:59:40;6.20;99.90
19580;DHT22;9936;51.040;13.918;2023-02-12T15:08:32;6.10;99.90
19580;DHT22;9936;51.040;13.918;2023-02-12T15:17:27;6.20;99.90
19580;DHT22;9936;51.040;13.918;2023-02-12T15:21:28;6.20;99.90
19580;DHT22;9936;51.040;13.918;2023-02-12T15:25:29;6.20;99.90
19580;DHT22;9936;51.040;13.918;2023-02-12T15:29:22;6.20;99.90
19580;DHT22;9936;51.040;13.918;2023-02-12T15:33:23;6.20;99.90
19580;DHT22;9936;51.040;13.918;2023-02-12T15:37:27;6.10;99.90
19580;DHT22;9936;51.040;13.918;2023-02-12T15:53:22;7.10;99.90
19580;DHT22;9936;51.040;13.918;2023-02-12T15:57:12;7.20;99.90
19580;DHT22;9936;51.040;13.918;2023-02-12T16:01:01;7.40;99.90
19580;DHT22;9936;51.040;13.918;2023-02-12T16:04:47;7.50;99.90
19580;DHT22;9936;51.040;13.918;2023-02-12T16:08:38;7.70;99.90
19580;DHT22;9936;51.040;13.918;2023-02-12T16:12:30;7.70;99.90
19580;DHT22;9936;51.040;13.918;2023-02-12T16:16:48;7.70;99.90
19580;DHT22;9936;51.040;13.918;2023-02-12T16:20:47;7.60;99.90
19580;DHT22;9936;51.040;13.918;2023-02-12T16:24:52;7.80;99.90
19580;DHT22;9936;51.040;13.918;2023-02-12T16:28:51;7.60;99.90
19580;DHT22;9936;51.040;13.918;2023-02-12T16:32:55;7.70;99.90
19580;DHT22;9936;51.040;13.918;2023-02-12T16:36:46;7.60;99.90
19580;DHT22;9936;51.040;13.918;2023-02-12T16:40:34;7.60;99.90
19580;DHT22;9936;51.040;13.918;2023-02-12T16:48:47;7.60;99.90
19580;DHT22;9936;51.040;13.918;2023-02-12T16:52:43;7.50;99.90
19580;DHT22;9936;51.040;13.918;2023-02-12T16:56:34;7.50;99.90
19580;DHT22;9936;51.040;13.918;2023-02-12T17:00:23;7.50;99.90
19580;DHT22;9936;51.040;13.918;2023-02-12T17:04:13;7.50;99.90
19580;DHT22;9936;51.040;13.918;2023-02-12T17:08:00;7.60;99.90
19580;DHT22;9936;51.040;13.918;2023-02-12T17:11:47;7.60;99.90
19580;DHT22;9936;51.040;13.918;2023-02-12T17:15:37;7.60;99.90
19580;DHT22;9936;51.040;13.918;2023-02-12T17:28:35;7.60;99.90
19580;DHT22;9936;51.040;13.918;2023-02-12T17:32:21;7.60;99.90
19580;DHT22;9936;51.040;13.918;2023-02-12T17:36:10;7.60;99.90
19580;DHT22;9936;51.040;13.918;2023-02-12T17:39:56;7.60;99.90
19580;DHT22;9936;51.040;13.918;2023-02-12T17:43:42;7.50;99.90
19580;DHT22;9936;51.040;13.918;2023-02-12T17:47:29;7.50;99.90
19580;DHT22;9936;51.040;13.918;2023-02-12T17:51:39;7.50;99.90
19580;DHT22;9936;51.040;13.918;2023-02-12T17:55:38;7.50;99.90
19580;DHT22;9936;51.040;13.918;2023-02-12T17:59:24;7.50;99.90
19580;DHT22;9936;51.040;13.918;2023-02-12T18:03:10;7.50;99.90
19580;DHT22;9936;51.040;13.918;2023-02-12T18:06:58;7.40;99.90
19580;DHT22;9936;51.040;13.918;2023-02-12T18:10:51;7.40;99.90
19580;DHT22;9936;51.040;13.918;2023-02-12T18:14:39;7.40;99.90
19580;DHT22;9936;51.040;13.918;2023-02-12T18:18:25;7.40;99.90
19580;DHT22;9936;51.040;13.918;2023-02-12T18:22:11;7.40;99.90
19580;DHT22;9936;51.040;13.918;2023-02-12T18:25:57;7.20;99.90
19580;DHT22;9936;51.040;13.918;2023-02-12T18:29:45;7.30;99.90
19580;DHT22;9936;51.040;13.918;2023-02-12T18:33:32;7.30;99.90
19580;DHT22;9936;51.040;13.918;2023-02-12T18:37:34;7.30;99.90
19580;DHT22;9936;51.040;13.918;2023-02-12T18:41:30;7.30;99.90
19580;DHT22;9936;51.040;13.918;2023-02-12T18:45:16;7.30;99.90
19580;DHT22;9936;51.040;13.918;2023-02-12T18:49:22;7.20;99.90
19580;DHT22;9936;51.040;13.918;2023-02-12T18:53:07;7.30;99.90
19580;DHT22;9936;51.040;13.918;2023-02-12T19:01:36;7.10;99.90
19580;DHT22;9936;51.040;13.918;2023-02-12T19:05:22;7.20;99.90
19580;DHT22;9936;51.040;13.918;2023-02-12T19:09:09;7.10;99.90
19580;DHT22;9936;51.040;13.918;2023-02-12T19:13:31;7.10;99.90
19580;DHT22;9936;51.040;13.918;2023-02-12T19:17:40;7.00;99.90
19580;DHT22;9936;51.040;13.918;2023-02-12T19:21:27;7.00;99.90
19580;DHT22;9936;51.040;13.918;2023-02-12T19:25:20;6.90;99.90
19580;DHT22;9936;51.040;13.918;2023-02-12T19:29:12;6.80;99.90
19580;DHT22;9936;51.040;13.918;2023-02-12T19:32:58;6.70;99.90
19580;DHT22;9936;51.040;13.918;2023-02-12T19:36:44;6.70;99.90
19580;DHT22;9936;51.040;13.918;2023-02-12T19:41:09;6.60;99.90
19580;DHT22;9936;51.040;13.918;2023-02-12T19:44:55;6.60;99.90
19580;DHT22;9936;51.040;13.918;2023-02-12T19:48:47;6.60;99.90
19580;DHT22;9936;51.040;13.918;2023-02-12T19:52:39;6.60;99.90
19580;DHT22;9936;51.040;13.918;2023-02-12T19:56:27;6.70;99.90
19580;DHT22;9936;51.040;13.918;2023-02-12T20:00:21;6.70;99.90
19580;DHT22;9936;51.040;13.918;2023-02-12T20:04:07;6.70;99.90
19580;DHT22;9936;51.040;13.918;2023-02-12T20:08:10;6.70;99.90
19580;DHT22;9936;51.040;13.918;2023-02-12T20:11:56;6.80;99.90
19580;DHT22;9936;51.040;13.918;2023-02-12T20:15:41;6.80;99.90
19580;DHT22;9936;51.040;13.918;2023-02-12T20:19:29;7.00;99.90
19580;DHT22;9936;51.040;13.918;2023-02-12T20:23:19;6.80;99.90
19580;DHT22;9936;51.040;13.918;2023-02-12T20:27:05;6.70;99.90
19580;DHT22;9936;51.040;13.918;2023-02-12T20:30:51;6.80;99.90
19580;DHT22;9936;51.040;13.918;2023-02-12T20:34:36;6.80;99.90
19580;DHT22;9936;51.040;13.918;2023-02-12T20:38:22;6.80;99.90
19580;DHT22;9936;51.040;13.918;2023-02-12T20:42:08;6.70;99.90
19580;DHT22;9936;51.040;13.918;2023-02-12T20:46:03;6.70;99.90
19580;DHT22;9936;51.040;13.918;2023-02-12T20:49:49;6.70;99.90
19580;DHT22;9936;51.040;13.918;2023-02-12T20:53:35;6.70;99.90
19580;DHT22;9936;51.040;13.918;2023-02-12T20:57:21;6.70;99.90
19580;DHT22;9936;51.040;13.918;2023-02-12T21:01:09;6.70;99.90
19580;DHT22;9936;51.040;13.918;2023-02-12T21:04:55;6.70;99.90
19580;DHT22;9936;51.040;13.918;2023-02-12T21:08:41;6.60;99.90
19580;DHT22;9936;51.040;13.918;2023-02-12T21:12:27;6.60;99.90
19580;DHT22;9936;51.040;13.918;2023-02-12T21:16:15;6.60;99.90
19580;DHT22;9936;51.040;13.918;2023-02-12T21:20:01;6.60;99.90
19580;DHT22;9936;51.040;13.918;2023-02-12T21:23:47;6.50;99.90
19580;DHT22;9936;51.040;13.918;2023-02-12T21:27:33;6.20;99.90
19580;DHT22;9936;51.040;13.918;2023-02-12T21:31:33;6.10;99.90
19580;DHT22;9936;51.040;13.918;2023-02-12T21:35:19;6.00;99.90
19580;DHT22;9936;51.040;13.918;2023-02-12T21:39:06;6.00;99.90
19580;DHT22;9936;51.040;13.918;2023-02-12T21:42:52;5.90;99.90
19580;DHT22;9936;51.040;13.918;2023-02-12T21:46:41;5.90;99.90
19580;DHT22;9936;51.040;13.918;2023-02-12T21:50:27;6.00;99.90
19580;DHT22;9936;51.040;13.918;2023-02-12T21:54:17;6.00;99.90
19580;DHT22;9936;51.040;13.918;2023-02-12T21:58:06;6.00;99.90
19580;DHT22;9936;51.040;13.918;2023-02-12T22:01:53;6.00;99.90
19580;DHT22;9936;51.040;13.918;2023-02-12T22:05:42;6.10;99.90
19580;DHT22;9936;51.040;13.918;2023-02-12T22:09:28;6.10;99.90
19580;DHT22;9936;51.040;13.918;2023-02-12T22:13:14;6.20;99.90
19580;DHT22;9936;51.040;13.918;2023-02-12T22:16:59;6.10;99.90
19580;DHT22;9936;51.040;13.918;2023-02-12T22:20:45;6.10;99.90
19580;DHT22;9936;51.040;13.918;2023-02-12T22:24:32;6.10;99.90
19580;DHT22;9936;51.040;13.918;2023-02-12T22:28:17;6.20;99.90
19580;DHT22;9936;51.040;13.918;2023-02-12T22:32:03;6.10;99.90
19580;DHT22;9936;51.040;13.918;2023-02-12T22:35:48;6.10;99.90
19580;DHT22;9936;51.040;13.918;2023-02-12T22:39:34;6.10;99.90
19580;DHT22;9936;51.040;13.918;2023-02-12T22:43:20;6.00;99.90
19580;DHT22;9936;51.040;13.918;2023-02-12T22:47:05;6.00;99.90
19580;DHT22;9936;51.040;13.918;2023-02-12T22:50:51;6.00;99.90
19580;DHT22;9936;51.040;13.918;2023-02-12T22:54:37;6.00;99.90
19580;DHT22;9936;51.040;13.918;2023-02-12T22:58:23;6.00;99.90
19580;DHT22;9936;51.040;13.918;2023-02-12T23:02:09;6.00;99.90
19580;DHT22;9936;51.040;13.918;2023-02-12T23:05:54;5.90;99.90
19580;DHT22;9936;51.040;13.918;2023-02-12T23:09:40;5.90;99.90
19580;DHT22;9936;51.040;13.918;2023-02-12T23:13:28;5.90;99.90
19580;DHT22;9936;51.040;13.918;2023-02-12T23:17:14;6.00;99.90
19580;DHT22;9936;51.040;13.918;2023-02-12T23:21:00;5.90;99.90
19580;DHT22;9936;51.040;13.918;2023-02-12T23:24:46;6.00;99.90
19580;DHT22;9936;51.040;13.918;2023-02-12T23:28:31;6.00;99.90
19580;DHT22;9936;51.040;13.918;2023-02-12T23:32:17;5.90;99.90
19580;DHT22;9936;51.040;13.918;2023-02-12T23:36:03;6.00;99.90
19580;DHT22;9936;51.040;13.918;2023-02-12T23:39:48;5.80;99.90
19580;DHT22;9936;51.040;13.918;2023-02-12T23:43:34;5.80;99.90
19580;DHT22;9936;51.040;13.918;2023-02-12T23:47:20;5.80;99.90
19580;DHT22;9936;51.040;13.918;2023-02-12T23:51:06;5.80;99.90
19580;DHT22;9936;51.040;13.918;2023-02-12T23:54:51;5.80;99.90
19580;DHT22;9936;51.040;13.918;2023-02-12T23:58:37;5.70;99.90
